| time (UTC) | temp F | wind direction | speed MPH | gust MPH | rain 1hr in | rain 24hr in | rain mn in | humidity % | barometer mb |
| 20260507160032 | 52 | 354 | 1.0 | 12.0 | 0.00 | 0.00 | 0.00 | 31 | 1007.6 |
| 20260507154534 | 52 | 285 | 6.0 | 11.0 | 0.00 | 0.00 | 0.00 | 32 | 1007.6 |
| 20260507153046 | 51 | 345 | 4.0 | 8.0 | 0.00 | 0.00 | 0.00 | 39 | 1007.8 |
| 20260507151550 | 49 | 288 | 5.0 | 10.0 | 0.00 | 0.00 | 0.00 | 41 | 1007.9 |
| 20260507150052 | 48 | 273 | 3.0 | 8.0 | 0.00 | 0.00 | 0.00 | 46 | 1008.0 |
| 20260507144502 | 47 | 289 | 3.0 | 8.0 | 0.00 | 0.00 | 0.00 | 50 | 1008.0 |
| 20260507143118 | 45 | 270 | 3.0 | 6.0 | 0.00 | 0.00 | 0.00 | 53 | 1008.0 |
| 20260507141605 | 44 | 263 | 3.0 | 6.0 | 0.00 | 0.00 | 0.00 | 55 | 1008.1 |
| 20260507140018 | 41 | 272 | 1.0 | 4.0 | 0.00 | 0.00 | 0.00 | 62 | 1008.1 |
| 20260507134514 | 39 | 243 | 1.0 | 3.0 | 0.00 | 0.00 | 0.00 | 65 | 1008.2 |
| 20260507133028 | 38 | 235 | 2.0 | 5.0 | 0.00 | 0.00 | 0.00 | 65 | 1008.3 |
| 20260507131541 | 35 | 210 | 0.0 | 3.0 | 0.00 | 0.00 | 0.00 | 70 | 1008.3 |
| 20260507130043 | 32 | 90 | 0.0 | 1.0 | 0.00 | 0.00 | 0.00 | 73 | 1008.1 |
| 20260507124601 | 30 | 90 | 0.0 | 0.0 | 0.00 | 0.00 | 0.00 | 75 | 1007.9 |
| 20260507123044 | 27 | 90 | 0.0 | 0.0 | 0.00 | 0.00 | 0.00 | 78 | 1008.1 |
| 20260507121545 | 25 | 90 | 0.0 | 0.0 | 0.00 | 0.00 | 0.00 | 80 | 1007.9 |
| 20260507120059 | 24 | 90 | 0.0 | 0.0 | 0.00 | 0.00 | 0.00 | 83 | 1007.8 |
| 20260507114510 | 22 | 115 | 0.0 | 0.0 | 0.00 | 0.00 | 0.00 | 83 | 1007.7 |
| 20260507113034 | 22 | 112 | 0.0 | 0.0 | 0.00 | 0.00 | 0.00 | 82 | 1007.8 |
| 20260507111518 | 22 | 112 | 0.0 | 0.0 | 0.00 | 0.00 | 0.00 | 82 | 1007.6 |
| 20260507110021 | 22 | 112 | 0.0 | 0.0 | 0.00 | 0.00 | 0.00 | 81 | 1007.7 |
| 20260507104532 | 22 | 112 | 0.0 | 0.0 | 0.00 | 0.00 | 0.00 | 80 | 1007.6 |
| 20260507103039 | 22 | 112 | 0.0 | 0.0 | 0.00 | 0.00 | 0.00 | 80 | 1007.8 |
| 20260507101545 | 23 | 112 | 0.0 | 0.0 | 0.00 | 0.00 | 0.00 | 78 | 1007.9 |
| 20260507100057 | 24 | 112 | 0.0 | 0.0 | 0.00 | 0.00 | 0.00 | 78 | 1007.8 |
| 20260507094607 | 24 | 112 | 0.0 | 0.0 | 0.00 | 0.00 | 0.00 | 79 | 1007.7 |
| 20260507093007 | 24 | 112 | 0.0 | 0.0 | 0.00 | 0.00 | 0.00 | 79 | 1007.8 |
| 20260507091503 | 24 | 112 | 0.0 | 0.0 | 0.00 | 0.00 | 0.00 | 78 | 1007.8 |
| 20260507090014 | 24 | 112 | 0.0 | 0.0 | 0.00 | 0.00 | 0.00 | 77 | 1007.9 |
| 20260507084519 | 24 | 112 | 0.0 | 0.0 | 0.00 | 0.00 | 0.00 | 77 | 1007.9 |
| 20260507083032 | 25 | 112 | 0.0 | 0.0 | 0.00 | 0.00 | 0.00 | 76 | 1007.7 |
| 20260507081540 | 25 | 112 | 0.0 | 0.0 | 0.00 | 0.00 | 0.00 | 76 | 1007.8 |
| 20260507080043 | 25 | 112 | 0.0 | 0.0 | 0.00 | 0.00 | 0.00 | 75 | 1007.8 |
| 20260507074557 | 25 | 112 | 0.0 | 0.0 | 0.00 | 0.00 | 0.00 | 75 | 1007.8 |
| 20260507073045 | 26 | 112 | 0.0 | 0.0 | 0.00 | 0.00 | 0.00 | 74 | 1007.8 |
| 20260507071558 | 26 | 112 | 0.0 | 0.0 | 0.00 | 0.00 | 0.00 | 72 | 1007.8 |
| 20260507070013 | 28 | 112 | 0.0 | 0.0 | 0.00 | 0.00 | 0.00 | 69 | 1007.9 |
| 20260507064512 | 30 | 112 | 0.0 | 0.0 | 0.00 | 0.00 | 0.00 | 69 | 1008.0 |
| 20260507063027 | 30 | 112 | 0.0 | 0.0 | 0.00 | 0.00 | 0.00 | 71 | 1008.0 |
| 20260507061539 | 31 | 112 | 0.0 | 0.0 | 0.00 | 0.00 | 0.00 | 68 | 1007.9 |
| 20260507060056 | 32 | 112 | 0.0 | 2.0 | 0.00 | 0.00 | 0.00 | 64 | 1008.0 |
| 20260507054551 | 33 | 112 | 1.0 | 2.0 | 0.00 | 0.00 | 0.00 | 65 | 1008.1 |
| 20260507053104 | 33 | 112 | 1.0 | 3.0 | 0.00 | 0.00 | 0.00 | 64 | 1008.0 |
| 20260507051514 | 34 | 112 | 1.0 | 3.0 | 0.00 | 0.00 | 0.00 | 61 | 1008.2 |
| 20260507050029 | 36 | 92 | 1.0 | 4.0 | 0.00 | 0.00 | 0.00 | 56 | 1008.2 |
| 20260507044536 | 37 | 140 | 2.0 | 4.0 | 0.00 | 0.00 | 0.00 | 56 | 1008.3 |
| 20260507043100 | 37 | 137 | 3.0 | 6.0 | 0.00 | 0.00 | 0.00 | 55 | 1008.4 |
| 20260507041507 | 37 | 126 | 2.0 | 6.0 | 0.00 | 0.00 | 0.00 | 54 | 1008.5 |
| 20260507040020 | 37 | 102 | 1.0 | 3.0 | 0.00 | 0.00 | 0.00 | 53 | 1008.6 |
| 20260507034526 | 38 | 107 | 2.0 | 4.0 | 0.00 | 0.00 | 0.00 | 53 | 1008.6 |
| 20260507033024 | 38 | 105 | 2.0 | 4.0 | 0.00 | 0.00 | 0.00 | 52 | 1008.6 |
| 20260507031544 | 39 | 94 | 0.0 | 3.0 | 0.00 | 0.00 | 0.00 | 51 | 1008.6 |
| 20260507030042 | 40 | 98 | 2.0 | 4.0 | 0.00 | 0.00 | 0.00 | 51 | 1008.5 |
| 20260507024550 | 41 | 84 | 1.0 | 5.0 | 0.00 | 0.00 | 0.00 | 50 | 1008.5 |
| 20260507023108 | 42 | 64 | 3.0 | 4.0 | 0.00 | 0.00 | 0.00 | 47 | 1008.3 |
| 20260507021559 | 44 | 60 | 1.0 | 3.0 | 0.00 | 0.00 | 0.00 | 45 | 1008.4 |
| 20260507020105 | 45 | 59 | 1.0 | 2.0 | 0.00 | 0.00 | 0.00 | 43 | 1008.5 |
| 20260507014513 | 47 | 59 | 0.0 | 3.0 | 0.00 | 0.00 | 0.00 | 42 | 1008.7 |
| 20260507013026 | 48 | 56 | 1.0 | 2.0 | 0.00 | 0.00 | 0.00 | 41 | 1008.7 |
| 20260507011545 | 49 | 41 | 0.0 | 3.0 | 0.00 | 0.00 | 0.00 | 41 | 1008.7 |
| 20260507010044 | 50 | 56 | 1.0 | 4.0 | 0.00 | 0.00 | 0.00 | 40 | 1008.8 |
| 20260507004544 | 50 | 360 | 5.0 | 11.0 | 0.00 | 0.00 | 0.00 | 37 | 1008.9 |
| 20260507003051 | 50 | 304 | 6.0 | 13.0 | 0.00 | 0.00 | 0.00 | 38 | 1009.0 |
| 20260507001616 | 51 | 76 | 2.0 | 6.0 | 0.00 | 0.00 | 0.00 | 39 | 1009.0 |
| 20260507000002 | 49 | 6 | 0.0 | 7.0 | 0.00 | 0.00 | 0.00 | 40 | 1009.2 |
| 20260506234515 | 50 | 358 | 7.0 | 11.0 | 0.00 | 0.00 | 0.00 | 39 | 1009.3 |
| 20260506233019 | 49 | 318 | 6.0 | 13.0 | 0.00 | 0.00 | 0.00 | 40 | 1009.6 |
| 20260506231530 | 49 | 340 | 6.0 | 18.0 | 0.00 | 0.00 | 0.00 | 39 | 1009.7 |
| 20260506230050 | 50 | 330 | 7.0 | 13.0 | 0.00 | 0.00 | 0.00 | 39 | 1009.7 |
| 20260506224537 | 49 | 324 | 7.0 | 12.0 | 0.00 | 0.00 | 0.00 | 40 | 1009.9 |
| 20260506223050 | 49 | 299 | 12.0 | 17.0 | 0.00 | 0.00 | 0.00 | 39 | 1010.0 |
| 20260506221502 | 49 | 325 | 8.0 | 17.0 | 0.00 | 0.00 | 0.00 | 39 | 1010.0 |
| 20260506220015 | 49 | 17 | 10.0 | 18.0 | 0.00 | 0.00 | 0.00 | 38 | 1010.2 |
| 20260506214527 | 50 | 322 | 8.0 | 16.0 | 0.00 | 0.00 | 0.00 | 37 | 1010.4 |
| 20260506213034 | 51 | 273 | 6.0 | 20.0 | 0.00 | 0.00 | 0.00 | 36 | 1010.5 |
| 20260506211539 | 50 | 309 | 7.0 | 15.0 | 0.00 | 0.00 | 0.00 | 38 | 1010.7 |
| 20260506210052 | 49 | 311 | 9.0 | 20.0 | 0.00 | 0.00 | 0.00 | 39 | 1010.9 |
| 20260506204547 | 49 | 360 | 5.0 | 9.0 | 0.00 | 0.00 | 0.00 | 40 | 1011.0 |
| 20260506203008 | 49 | 310 | 4.0 | 11.0 | 0.00 | 0.00 | 0.00 | 40 | 1011.3 |
| 20260506201521 | 49 | 352 | 4.0 | 12.0 | 0.00 | 0.00 | 0.00 | 41 | 1011.5 |
| 20260506200018 | 48 | 346 | 2.0 | 12.0 | 0.00 | 0.00 | 0.00 | 44 | 1011.7 |
| 20260506194525 | 46 | 358 | 4.0 | 11.0 | 0.00 | 0.00 | 0.00 | 45 | 1012.0 |
| 20260506193033 | 46 | 351 | 8.0 | 13.0 | 0.00 | 0.00 | 0.00 | 43 | 1012.1 |
| 20260506191518 | 46 | 339 | 5.0 | 14.0 | 0.00 | 0.00 | 0.00 | 44 | 1012.2 |
| 20260506190033 | 46 | 2 | 2.0 | 14.0 | 0.00 | 0.00 | 0.00 | 47 | 1012.5 |
| 20260506184543 | 45 | 331 | 4.0 | 17.0 | 0.00 | 0.00 | 0.00 | 47 | 1012.6 |
| 20260506183047 | 44 | 2 | 2.0 | 15.0 | 0.00 | 0.00 | 0.00 | 48 | 1012.8 |
| 20260506181604 | 44 | 328 | 6.0 | 15.0 | 0.00 | 0.00 | 0.00 | 48 | 1013.2 |
| 20260506180011 | 44 | 5 | 5.0 | 13.0 | 0.00 | 0.00 | 0.00 | 49 | 1013.2 |
| 20260506174514 | 44 | 330 | 6.0 | 15.0 | 0.00 | 0.00 | 0.00 | 49 | 1013.6 |
| 20260506173018 | 44 | 291 | 5.0 | 13.0 | 0.00 | 0.00 | 0.00 | 50 | 1013.8 |
| 20260506171522 | 43 | 285 | 6.0 | 13.0 | 0.00 | 0.00 | 0.00 | 51 | 1013.9 |
| 20260506170038 | 42 | 3 | 5.0 | 12.0 | 0.00 | 0.00 | 0.00 | 52 | 1014.1 |
| 20260506164553 | 41 | 325 | 6.0 | 14.0 | 0.00 | 0.00 | 0.00 | 53 | 1014.3 |
| 20260506163059 | 41 | 292 | 6.0 | 13.0 | 0.00 | 0.00 | 0.00 | 53 | 1014.4 |
| 20260506161603 | 40 | 343 | 8.0 | 13.0 | 0.00 | 0.00 | 0.00 | 55 | 1014.5 |